Time;durP1;ratioP1;P1;durP2;ratioP2;P2;SDS_P1;SDS_P2;PMS_P1;PMS_P2;Temp;Humidity;BMP_temperature;BMP_pressure;BME280_temperature;BME280_humidity;BME280_pressure;Samples;Min_cycle;Max_cycle;Signal;HPM_P1;HPM_P2
2022/12/21 00:01:18;;;;;;;3.78;1.92;;;18.00;54.90;;;;;;5011657;28;20186;-83
2022/12/21 00:03:46;;;;;;;2.50;1.83;;;17.90;54.80;;;;;;5011954;28;20171;-83
2022/12/21 00:06:13;;;;;;;3.90;1.67;;;18.00;54.90;;;;;;4996622;28;20538;-83
2022/12/21 00:08:42;;;;;;;2.75;1.77;;;18.00;55.00;;;;;;4995236;28;20168;-83
2022/12/21 00:11:09;;;;;;;4.18;1.80;;;17.90;54.90;;;;;;5028261;28;20156;-83
2022/12/21 00:13:34;;;;;;;4.18;1.70;;;17.90;55.00;;;;;;5011757;28;20197;-83
2022/12/21 00:16:04;;;;;;;3.78;1.80;;;17.90;55.00;;;;;;5011376;28;20171;-83
2022/12/21 00:18:38;;;;;;;2.47;1.60;;;17.90;55.00;;;;;;4995933;28;20168;-83
2022/12/21 00:21:10;;;;;;;3.85;1.70;;;17.90;54.90;;;;;;5011432;28;20163;-82
2022/12/21 00:23:36;;;;;;;2.47;1.70;;;18.00;55.00;;;;;;5011974;28;20190;-83
2022/12/21 00:26:03;;;;;;;3.55;2.00;;;18.00;55.00;;;;;;5011558;28;20168;-83
2022/12/21 00:28:29;;;;;;;2.88;1.60;;;18.00;55.00;;;;;;5011271;28;20166;-83
2022/12/21 00:30:55;;;;;;;2.50;1.50;;;17.90;54.90;;;;;;4995484;28;20179;-83
2022/12/21 00:33:21;;;;;;;2.20;1.83;;;17.90;55.00;;;;;;4995655;28;20300;-83
2022/12/21 00:35:50;;;;;;;2.70;1.35;;;17.90;55.00;;;;;;4994921;28;20594;-83
2022/12/21 00:38:17;;;;;;;2.80;1.70;;;18.00;55.20;;;;;;5011601;28;20163;-82
2022/12/21 00:40:43;;;;;;;3.50;1.98;;;17.90;55.20;;;;;;4994811;28;20510;-83
2022/12/21 00:43:10;;;;;;;3.38;1.88;;;17.90;55.20;;;;;;4994709;28;20186;-82
2022/12/21 00:45:39;;;;;;;2.88;1.80;;;17.80;55.40;;;;;;4994266;28;20167;-83
2022/12/21 00:48:05;;;;;;;3.25;1.75;;;17.80;55.30;;;;;;5028137;28;20219;-83
2022/12/21 00:50:33;;;;;;;1.75;1.55;;;17.80;55.30;;;;;;5010781;28;20176;-83
2022/12/21 00:52:59;;;;;;;3.13;1.40;;;17.80;55.30;;;;;;4994909;28;20223;-83
2022/12/21 00:55:25;;;;;;;3.35;1.98;;;17.80;55.30;;;;;;4978192;28;20178;-82
2022/12/21 00:57:50;;;;;;;5.00;1.83;;;17.80;55.40;;;;;;4977845;28;20203;-83
2022/12/21 01:00:18;;;;;;;4.43;1.90;;;17.80;55.50;;;;;;4978732;28;20168;-83
2022/12/21 01:02:44;;;;;;;2.70;1.48;;;17.80;55.50;;;;;;4978578;28;20171;-82
2022/12/21 01:05:13;;;;;;;3.65;1.67;;;17.80;55.50;;;;;;4978797;28;20175;-83
2022/12/21 01:07:40;;;;;;;4.18;1.73;;;17.70;55.50;;;;;;4994123;28;20175;-83
2022/12/21 01:10:08;;;;;;;1.67;1.33;;;17.70;55.60;;;;;;4978459;28;20182;-82
2022/12/21 01:12:35;;;;;;;3.00;1.48;;;17.70;55.60;;;;;;4978305;28;20216;-83
2022/12/21 01:15:01;;;;;;;4.90;2.00;;;17.70;55.60;;;;;;4995043;28;20163;-82
2022/12/21 01:17:27;;;;;;;2.88;1.70;;;17.70;55.70;;;;;;4994708;28;20175;-83
2022/12/21 01:19:54;;;;;;;1.80;1.40;;;17.60;55.60;;;;;;4994701;28;20613;-82
2022/12/21 01:22:20;;;;;;;2.92;1.65;;;17.70;55.70;;;;;;4978938;28;20202;-82
2022/12/21 01:24:47;;;;;;;4.00;1.60;;;17.70;55.80;;;;;;4994290;28;20164;-83
2022/12/21 01:27:14;;;;;;;4.05;1.45;;;17.70;55.70;;;;;;4978219;28;20198;-83
2022/12/21 01:29:40;;;;;;;2.55;1.60;;;17.70;55.70;;;;;;4994429;28;20630;-83
2022/12/21 01:32:07;;;;;;;2.33;1.40;;;17.70;55.70;;;;;;4978198;28;20231;-82
2022/12/21 01:34:33;;;;;;;2.78;1.88;;;17.80;55.80;;;;;;4994120;28;20152;-82
2022/12/21 01:37:00;;;;;;;2.63;1.65;;;17.70;55.70;;;;;;4993916;28;20173;-83
2022/12/21 01:39:28;;;;;;;2.97;1.40;;;17.70;55.90;;;;;;4993765;28;20175;-82
2022/12/21 01:41:54;;;;;;;2.38;1.60;;;17.60;55.80;;;;;;4993795;28;20164;-83
2022/12/21 01:44:57;;;;;;;1.88;1.50;;;17.60;55.90;;;;;;5009819;28;20239;-83
2022/12/21 01:47:27;;;;;;;2.60;1.88;;;17.60;55.90;;;;;;5009593;28;20541;-83
2022/12/21 01:49:59;;;;;;;3.42;1.83;;;17.60;56.00;;;;;;5010333;28;20629;-83
2022/12/21 01:52:24;;;;;;;2.17;1.48;;;17.60;56.00;;;;;;4993592;28;20194;-83
2022/12/21 01:54:56;;;;;;;2.33;1.60;;;17.60;56.10;;;;;;4993548;28;20175;-83
2022/12/21 01:57:24;;;;;;;2.13;1.70;;;17.60;56.10;;;;;;4993426;28;20732;-82
2022/12/21 01:59:53;;;;;;;2.60;1.60;;;17.60;56.20;;;;;;4993517;28;20168;-82
2022/12/21 02:02:21;;;;;;;3.88;1.75;;;17.60;56.10;;;;;;4993024;28;20594;-83
2022/12/21 02:04:50;;;;;;;4.32;1.50;;;17.50;56.00;;;;;;5009453;28;20152;-83
2022/12/21 02:07:16;;;;;;;3.58;1.92;;;17.60;56.20;;;;;;4992693;28;20303;-83
2022/12/21 02:09:43;;;;;;;2.00;1.30;;;17.60;56.00;;;;;;5009317;28;20193;-83
2022/12/21 02:12:10;;;;;;;2.95;1.48;;;17.60;56.10;;;;;;4993376;28;20198;-82
2022/12/21 02:14:41;;;;;;;2.65;1.48;;;17.60;56.10;;;;;;4993612;28;20175;-82
2022/12/21 02:17:30;;;;;;;2.50;1.60;;;17.60;56.10;;;;;;4993347;28;20190;-83
2022/12/21 02:20:27;;;;;;;2.60;1.58;;;17.60;56.00;;;;;;4995731;28;20222;-82
2022/12/21 02:23:22;;;;;;;3.70;1.60;;;17.60;56.20;;;;;;5027494;28;20162;-82
2022/12/21 02:26:18;;;;;;;1.98;1.40;;;17.60;56.20;;;;;;5009708;28;20164;-83
2022/12/21 02:29:07;;;;;;;1.63;1.42;;;17.60;56.20;;;;;;4993109;28;20626;-82
2022/12/21 02:31:57;;;;;;;1.77;1.50;;;17.60;56.00;;;;;;5011518;28;20163;-82
2022/12/21 02:34:50;;;;;;;3.38;1.58;;;17.60;56.90;;;;;;4993438;28;20167;-82
2022/12/21 02:37:20;;;;;;;3.00;1.63;;;17.60;56.20;;;;;;4995709;28;20252;-82
2022/12/21 02:40:07;;;;;;;2.70;1.60;;;17.60;56.20;;;;;;4993060;28;20175;-83
2022/12/21 02:45:38;;;;;;;1.98;1.48;;;17.70;56.10;;;;;;5010518;28;20156;-83
2022/12/21 02:48:14;;;;;;;2.45;1.50;;;17.60;56.10;;;;;;5008750;28;20174;-83
2022/12/21 02:50:42;;;;;;;1.92;1.40;;;17.60;56.10;;;;;;5008388;28;20155;-83
2022/12/21 02:53:13;;;;;;;3.75;1.60;;;17.50;56.00;;;;;;4992087;28;20235;-84
2022/12/21 02:55:40;;;;;;;3.65;1.50;;;17.50;56.20;;;;;;4993266;28;20151;-83
2022/12/21 02:58:19;;;;;;;3.28;1.52;;;17.50;56.00;;;;;;4976747;28;20186;-84
2022/12/21 03:01:00;;;;;;;2.17;1.38;;;17.60;56.20;;;;;;4992064;28;20171;-83
2022/12/21 03:06:41;;;;;;;2.08;1.50;;;17.50;56.20;;;;;;5011215;28;20155;-83
2022/12/21 03:09:34;;;;;;;1.83;1.40;;;17.50;56.30;;;;;;5008435;28;20562;-83
2022/12/21 03:12:17;;;;;;;1.92;1.63;;;17.50;56.20;;;;;;4995126;28;20175;-83
2022/12/21 03:14:57;;;;;;;2.60;1.45;;;17.50;56.20;;;;;;4993799;28;20256;-83
2022/12/21 03:17:54;;;;;;;4.05;1.30;;;17.50;56.20;;;;;;4992306;28;20178;-83
2022/12/21 03:20:27;;;;;;;2.63;1.45;;;17.50;56.30;;;;;;5010436;28;20561;-83
2022/12/21 03:23:16;;;;;;;1.67;1.40;;;17.60;56.20;;;;;;5013780;28;20155;-83
2022/12/21 03:26:00;;;;;;;1.77;1.30;;;17.50;56.20;;;;;;4995876;28;20171;-83
2022/12/21 03:28:29;;;;;;;2.42;1.70;;;17.60;56.10;;;;;;5011784;28;20171;-83
2022/12/21 03:30:56;;;;;;;2.67;1.33;;;17.50;56.40;;;;;;4997000;28;20167;-83
2022/12/21 03:33:27;;;;;;;1.90;1.45;;;17.50;56.20;;;;;;4996105;28;20186;-83
2022/12/21 03:36:03;;;;;;;1.95;1.45;;;17.50;56.20;;;;;;5012620;28;20180;-83
2022/12/21 03:38:34;;;;;;;2.05;1.35;;;17.50;56.10;;;;;;5012702;28;20180;-83
2022/12/21 03:41:01;;;;;;;3.78;1.50;;;17.60;56.20;;;;;;4980748;28;20202;-83
2022/12/21 03:43:30;;;;;;;1.92;1.33;;;17.50;56.20;;;;;;4996285;28;20151;-83
2022/12/21 03:46:01;;;;;;;2.38;1.52;;;17.50;56.20;;;;;;4996391;28;20170;-83
2022/12/21 03:48:32;;;;;;;2.10;1.50;;;17.50;56.30;;;;;;4996944;28;20175;-83
2022/12/21 03:51:04;;;;;;;2.22;1.52;;;17.60;56.20;;;;;;4996362;28;20162;-83
2022/12/21 03:53:40;;;;;;;3.85;1.42;;;17.50;56.20;;;;;;5011505;28;20310;-83
2022/12/21 03:56:07;;;;;;;3.15;1.73;;;17.50;56.30;;;;;;5012331;28;20558;-83
2022/12/21 03:58:33;;;;;;;3.65;1.45;;;17.50;56.30;;;;;;4996364;28;20179;-83
2022/12/21 04:01:17;;;;;;;2.72;1.50;;;17.50;56.20;;;;;;4995578;28;20626;-83
2022/12/21 04:03:43;;;;;;;3.30;1.33;;;17.60;56.50;;;;;;4997057;28;20171;-83
2022/12/21 04:06:15;;;;;;;2.88;1.20;;;17.50;56.10;;;;;;5011450;28;20219;-83
2022/12/21 04:08:41;;;;;;;3.75;1.40;;;17.50;57.00;;;;;;4995400;28;20571;-83
2022/12/21 04:12:35;;;;;;;4.20;1.25;;;17.50;56.40;;;;;;4994584;28;20174;-84
2022/12/21 04:13:52;;;;;;;3.83;1.75;;;17.50;56.20;;;;;;5016628;28;20237;-83
2022/12/21 04:16:21;;;;;;;2.50;1.30;;;17.50;56.60;;;;;;5015915;28;20253;-84
2022/12/21 04:21:32;;;;;;;2.17;1.35;;;17.50;56.50;;;;;;5018094;28;20163;-83
2022/12/21 04:29:33;;;;;;;3.67;1.60;;;17.40;56.60;;;;;;5013293;28;20507;-83
2022/12/21 04:32:01;;;;;;;2.15;1.35;;;17.50;56.60;;;;;;5010279;28;20166;-83
2022/12/21 04:34:27;;;;;;;3.15;1.40;;;17.40;56.50;;;;;;5011210;28;20160;-83
2022/12/21 04:39:32;;;;;;;2.83;1.58;;;17.40;56.50;;;;;;5013340;28;20172;-83
2022/12/21 04:41:59;;;;;;;2.38;1.30;;;17.40;56.50;;;;;;5011475;28;20239;-83
2022/12/21 04:44:27;;;;;;;3.40;1.70;;;17.50;56.60;;;;;;5011536;28;20167;-83
2022/12/21 04:46:55;;;;;;;2.75;1.80;;;17.40;56.50;;;;;;4994866;28;20189;-83
2022/12/21 04:49:22;;;;;;;2.20;1.33;;;17.40;56.60;;;;;;4994833;28;20175;-83
2022/12/21 04:51:48;;;;;;;2.00;1.60;;;17.50;56.40;;;;;;5011016;28;20637;-83
2022/12/21 04:54:16;;;;;;;2.03;1.60;;;17.50;56.40;;;;;;4994587;28;20219;-83
2022/12/21 04:56:43;;;;;;;2.72;1.50;;;17.50;56.50;;;;;;4994866;28;20159;-83
2022/12/21 04:59:09;;;;;;;3.35;1.20;;;17.50;56.60;;;;;;4994749;28;20514;-84
2022/12/21 05:01:35;;;;;;;2.65;1.50;;;17.40;56.70;;;;;;4975484;28;20168;-83
2022/12/21 05:04:05;;;;;;;2.15;1.20;;;17.50;56.60;;;;;;4989460;28;20626;-83
2022/12/21 05:06:32;;;;;;;2.40;1.35;;;17.40;56.60;;;;;;4994838;28;20171;-83
2022/12/21 05:08:59;;;;;;;3.25;1.15;;;17.40;56.70;;;;;;5010525;28;20213;-84
2022/12/21 05:11:25;;;;;;;1.80;1.40;;;17.40;56.60;;;;;;5010626;28;20167;-83
2022/12/21 05:13:51;;;;;;;2.17;1.40;;;17.40;56.50;;;;;;4994370;28;20198;-83
2022/12/21 05:16:22;;;;;;;2.20;1.45;;;17.40;56.60;;;;;;4993944;28;20163;-83
2022/12/21 05:18:49;;;;;;;2.50;1.48;;;17.40;56.60;;;;;;4994878;28;20164;-83
2022/12/21 05:21:15;;;;;;;1.77;1.33;;;17.40;56.60;;;;;;5010484;28;20169;-83
2022/12/21 05:23:42;;;;;;;1.75;1.40;;;17.40;56.70;;;;;;5010023;28;20194;-83
2022/12/21 05:26:08;;;;;;;1.92;1.42;;;17.40;56.60;;;;;;5009754;28;20156;-83
2022/12/21 05:28:35;;;;;;;2.30;1.50;;;17.40;56.70;;;;;;4994576;28;20191;-83
2022/12/21 05:31:03;;;;;;;1.80;1.33;;;17.40;56.70;;;;;;4993709;28;20178;-83
2022/12/21 05:33:30;;;;;;;2.45;1.45;;;17.40;56.70;;;;;;4994058;28;20192;-83
2022/12/21 05:35:56;;;;;;;2.30;1.50;;;17.40;56.70;;;;;;5009584;28;20179;-83
2022/12/21 05:38:22;;;;;;;2.55;1.45;;;17.40;57.00;;;;;;4993813;28;20163;-83
2022/12/21 05:40:48;;;;;;;1.95;1.40;;;17.30;56.90;;;;;;4992894;28;20195;-83
2022/12/21 05:43:15;;;;;;;1.63;1.10;;;17.30;56.80;;;;;;4993155;28;20174;-83
2022/12/21 05:45:41;;;;;;;3.05;1.50;;;17.40;57.00;;;;;;4993912;28;20171;-83
2022/12/21 05:48:07;;;;;;;3.40;1.40;;;17.30;56.70;;;;;;5009935;28;20159;-83
2022/12/21 05:50:32;;;;;;;2.45;1.40;;;17.40;56.90;;;;;;5009547;28;20159;-84
2022/12/21 05:52:58;;;;;;;1.50;1.20;;;17.40;56.80;;;;;;5006935;28;20223;-83
2022/12/21 05:55:26;;;;;;;2.83;1.60;;;17.40;56.70;;;;;;5008038;28;20156;-83
2022/12/21 05:57:51;;;;;;;2.20;1.38;;;17.30;56.80;;;;;;4992669;28;20164;-83
2022/12/21 06:00:17;;;;;;;1.50;1.30;;;17.40;56.80;;;;;;4992983;28;20296;-83
2022/12/21 06:02:43;;;;;;;2.72;1.30;;;17.40;56.80;;;;;;5023347;28;20165;-83
2022/12/21 06:05:09;;;;;;;1.80;1.10;;;17.30;56.70;;;;;;4993491;28;20225;-84
2022/12/21 06:07:37;;;;;;;1.65;1.52;;;17.40;56.70;;;;;;5008892;28;20159;-83
2022/12/21 06:10:06;;;;;;;2.05;1.30;;;17.40;56.80;;;;;;4993207;28;20186;-83
2022/12/21 06:12:33;;;;;;;2.17;1.52;;;17.40;56.70;;;;;;4993504;28;20218;-82
2022/12/21 06:15:12;;;;;;;2.33;1.30;;;17.40;56.80;;;;;;4990798;28;20184;-82
2022/12/21 06:17:39;;;;;;;1.90;1.20;;;17.30;57.10;;;;;;4990452;28;20164;-83
2022/12/21 06:20:06;;;;;;;2.20;1.35;;;17.30;57.10;;;;;;4991047;28;20183;-83
2022/12/21 06:22:34;;;;;;;2.75;1.40;;;17.30;57.20;;;;;;4990203;28;20164;-83
2022/12/21 06:25:08;;;;;;;1.35;1.20;;;17.30;57.30;;;;;;4989954;28;20180;-83
2022/12/21 06:27:34;;;;;;;2.03;1.42;;;17.20;57.40;;;;;;5006753;28;20164;-83
2022/12/21 06:30:01;;;;;;;1.42;1.33;;;17.20;57.40;;;;;;4969860;28;20189;-82
2022/12/21 06:32:30;;;;;;;1.85;1.13;;;17.20;57.40;;;;;;4954561;28;20227;-83
2022/12/21 06:34:55;;;;;;;2.10;1.50;;;17.20;57.50;;;;;;4955478;28;20694;-81
2022/12/21 06:37:21;;;;;;;2.10;1.45;;;17.10;57.50;;;;;;4970783;28;20200;-81
2022/12/21 06:39:47;;;;;;;2.28;1.33;;;17.20;57.40;;;;;;4954409;28;20188;-82
2022/12/21 06:42:13;;;;;;;2.30;1.38;;;17.20;57.20;;;;;;4954464;28;20197;-81
2022/12/21 06:44:42;;;;;;;1.65;1.27;;;17.20;57.40;;;;;;4969918;28;20589;-81
2022/12/21 06:47:08;;;;;;;2.53;1.33;;;17.20;57.40;;;;;;4912761;29;20186;-82
2022/12/21 06:49:33;;;;;;;2.53;1.30;;;17.20;57.30;;;;;;4912373;29;20245;-81
2022/12/21 06:52:00;;;;;;;1.58;1.20;;;17.30;57.30;;;;;;4912107;29;20269;-82
2022/12/21 06:54:32;;;;;;;1.98;1.30;;;17.30;57.00;;;;;;4912494;29;20230;-81
2022/12/21 06:56:59;;;;;;;1.48;1.13;;;17.30;57.10;;;;;;4911832;29;20653;-82
2022/12/21 06:59:25;;;;;;;1.55;1.30;;;17.30;57.10;;;;;;4910995;29;20161;-82
2022/12/21 07:01:50;;;;;;;1.65;1.10;;;17.30;57.10;;;;;;4927889;29;20217;-82
2022/12/21 07:04:16;;;;;;;1.63;1.30;;;17.20;57.30;;;;;;4915028;29;20230;-82
2022/12/21 07:06:44;;;;;;;1.23;1.13;;;17.30;57.40;;;;;;4912955;29;20196;-82
2022/12/21 07:09:11;;;;;;;2.88;1.40;;;17.20;57.40;;;;;;4929630;29;20181;-83
2022/12/21 07:11:37;;;;;;;1.45;1.35;;;17.20;57.20;;;;;;4926393;29;20173;-81
2022/12/21 07:14:03;;;;;;;2.55;1.30;;;17.20;57.30;;;;;;4927203;29;20319;-82
2022/12/21 07:16:29;;;;;;;1.60;1.20;;;17.30;57.20;;;;;;4912666;29;20170;-84
2022/12/21 07:18:56;;;;;;;1.85;1.20;;;17.30;57.20;;;;;;4977369;28;20199;-82
2022/12/21 07:21:22;;;;;;;1.35;1.20;;;17.30;57.20;;;;;;4991957;28;20193;-83
2022/12/21 07:23:54;;;;;;;1.52;1.10;;;17.30;57.10;;;;;;5007661;28;20198;-85
2022/12/21 07:26:23;;;;;;;2.55;1.48;;;17.30;57.20;;;;;;5001845;28;20179;-86
2022/12/21 07:29:08;;;;;;;1.20;1.10;;;17.30;57.20;;;;;;4957055;28;20187;-86
2022/12/21 07:32:20;;;;;;;1.65;1.20;;;17.20;57.10;;;;;;4990610;28;20177;-87
2022/12/21 07:34:46;;;;;;;2.20;1.35;;;17.40;56.90;;;;;;4886940;29;20282;-88
2022/12/21 07:37:25;;;;;;;;;;;;;;;;;;;;;
2022/12/21 07:40:22;;;;;;;1.98;1.00;;;17.50;56.20;;;;;;4903705;29;20282;-86
2022/12/21 07:42:58;;;;;;;1.73;1.20;;;17.50;56.50;;;;;;4832204;29;20186;-86
2022/12/21 07:56:52;;;;;;;1.55;1.10;;;17.70;55.80;;;;;;4743266;30;20206;-86
2022/12/21 07:59:38;;;;;;;1.25;1.10;;;17.70;55.50;;;;;;4674864;30;20305;-85
2022/12/21 08:05:20;;;;;;;1.38;1.02;;;17.90;55.50;;;;;;4675742;30;20196;-84
2022/12/21 08:09:17;;;;;;;;;;;;;;;;;;;;;
2022/12/21 08:25:05;;;;;;;1.42;1.10;;;17.90;55.50;;;;;;5124126;23;20233;-84
2022/12/21 08:27:41;;;;;;;5.13;1.05;;;17.90;55.40;;;;;;4915633;29;20186;-85
2022/12/21 08:30:09;;;;;;;5.38;1.00;;;17.90;55.60;;;;;;4926077;29;20182;-85
2022/12/21 08:32:43;;;;;;;4.35;0.88;;;17.90;55.70;;;;;;4909852;29;20210;-85
2022/12/21 08:35:28;;;;;;;1.02;0.90;;;18.00;55.70;;;;;;4911191;29;20659;-84
2022/12/21 08:38:07;;;;;;;2.35;1.20;;;18.00;55.70;;;;;;4912806;29;20212;-84
2022/12/21 08:40:37;;;;;;;0.95;0.80;;;18.00;55.30;;;;;;4896874;29;20187;-84
2022/12/21 08:43:08;;;;;;;1.80;0.88;;;18.00;55.50;;;;;;4910261;29;20188;-84
2022/12/21 08:45:34;;;;;;;1.52;0.82;;;18.10;55.30;;;;;;4895242;29;20279;-84
2022/12/21 08:48:04;;;;;;;1.42;0.90;;;18.00;55.50;;;;;;4894707;29;20199;-84
2022/12/21 08:50:32;;;;;;;1.75;0.98;;;18.10;55.50;;;;;;4911701;29;20247;-85
2022/12/21 08:53:01;;;;;;;0.93;0.88;;;18.10;55.50;;;;;;4918325;29;20266;-85
2022/12/21 08:55:35;;;;;;;1.63;1.00;;;18.10;54.90;;;;;;4903548;29;20700;-85
2022/12/21 08:58:09;;;;;;;1.40;0.90;;;18.10;55.60;;;;;;4919367;29;20209;-84
2022/12/21 09:00:38;;;;;;;1.80;0.88;;;18.10;55.60;;;;;;4918827;29;20187;-84
2022/12/21 09:03:06;;;;;;;0.88;0.80;;;18.10;55.70;;;;;;4934765;29;20257;-85
2022/12/21 09:05:35;;;;;;;2.95;0.85;;;18.10;55.40;;;;;;4927713;28;20192;-84
2022/12/21 09:08:11;;;;;;;1.25;0.95;;;18.10;55.80;;;;;;4956627;28;20273;-85
2022/12/21 09:10:39;;;;;;;2.05;1.00;;;18.10;56.00;;;;;;4974617;28;20263;-84
2022/12/21 09:13:09;;;;;;;1.55;0.90;;;18.10;55.60;;;;;;4937689;29;20238;-84
2022/12/21 09:15:41;;;;;;;1.42;1.08;;;18.10;56.00;;;;;;4907237;29;20206;-84
2022/12/21 09:18:07;;;;;;;3.22;1.00;;;18.10;56.10;;;;;;4921269;29;20253;-84
2022/12/21 09:20:33;;;;;;;2.30;0.90;;;18.10;55.70;;;;;;4904239;29;20207;-84
2022/12/21 09:23:11;;;;;;;1.25;0.90;;;18.10;56.00;;;;;;4920990;29;20257;-84
2022/12/21 09:25:51;;;;;;;3.03;1.00;;;18.20;55.80;;;;;;4919870;29;20277;-84
2022/12/21 09:28:17;;;;;;;1.15;0.77;;;18.10;55.90;;;;;;4949512;29;20264;-85
2022/12/21 09:30:42;;;;;;;3.20;0.82;;;18.10;56.10;;;;;;4917266;29;20162;-84
2022/12/21 09:33:18;;;;;;;1.42;0.80;;;18.20;55.90;;;;;;4900332;29;20331;-83
2022/12/21 09:35:50;;;;;;;1.77;1.02;;;18.20;56.20;;;;;;4914526;29;20190;-83
2022/12/21 09:38:17;;;;;;;1.80;0.95;;;18.20;56.50;;;;;;4914495;29;20183;-83
2022/12/21 09:40:46;;;;;;;0.98;0.82;;;18.10;56.30;;;;;;4900680;29;20179;-84
2022/12/21 09:43:30;;;;;;;0.90;0.75;;;18.10;56.50;;;;;;4876412;29;20192;-82
2022/12/21 09:46:06;;;;;;;1.23;0.75;;;18.20;56.60;;;;;;4875042;29;20735;-82
2022/12/21 09:49:00;;;;;;;2.50;0.80;;;18.20;56.40;;;;;;4854910;29;20246;-83
2022/12/21 09:51:33;;;;;;;1.63;0.60;;;18.20;56.30;;;;;;4827660;29;20195;-84
2022/12/21 09:54:31;;;;;;;0.80;0.65;;;18.20;56.20;;;;;;4855791;29;20216;-84
2022/12/21 09:57:03;;;;;;;0.70;0.70;;;18.20;56.00;;;;;;4841470;29;20185;-84
2022/12/21 09:59:50;;;;;;;3.28;1.00;;;18.20;55.90;;;;;;4819412;29;20659;-85
2022/12/21 10:02:50;;;;;;;9.05;1.10;;;18.20;55.70;;;;;;4808444;29;20182;-86
2022/12/21 10:05:31;;;;;;;4.20;0.90;;;18.20;55.70;;;;;;4827152;29;20269;-85
2022/12/21 10:08:18;;;;;;;8.52;1.13;;;18.30;56.00;;;;;;4829060;29;20327;-85
2022/12/21 10:15:01;;;;;;;7.63;1.30;;;18.20;56.00;;;;;;4852784;29;20585;-83
2022/12/21 10:18:15;;;;;;;11.35;1.85;;;18.20;56.10;;;;;;4841318;29;20189;-82
2022/12/21 10:20:56;;;;;;;11.98;1.65;;;18.30;56.30;;;;;;4845213;29;20275;-83
2022/12/21 10:23:35;;;;;;;9.45;1.58;;;18.30;56.40;;;;;;4848480;29;20173;-82
2022/12/21 10:26:03;;;;;;;15.20;1.85;;;18.20;56.10;;;;;;4884180;29;20618;-81
2022/12/21 10:28:51;;;;;;;10.05;1.60;;;18.30;56.20;;;;;;4907102;29;20182;-82
2022/12/21 10:31:24;;;;;;;13.20;1.80;;;18.30;56.10;;;;;;4913989;29;20265;-81
2022/12/21 10:33:58;;;;;;;9.32;1.23;;;18.30;56.20;;;;;;4895821;29;20194;-82
2022/12/21 10:36:33;;;;;;;9.40;1.38;;;18.30;56.00;;;;;;4875553;29;20263;-83
2022/12/21 10:39:18;;;;;;;8.32;0.95;;;18.30;56.00;;;;;;4867287;29;20210;-82
2022/12/21 10:41:48;;;;;;;4.53;1.10;;;18.30;55.90;;;;;;4868936;29;20220;-82
2022/12/21 10:44:14;;;;;;;5.80;1.23;;;18.30;56.40;;;;;;4880965;29;20691;-84
2022/12/21 10:46:40;;;;;;;5.40;0.85;;;18.30;56.30;;;;;;4884727;29;20235;-82
2022/12/21 10:49:18;;;;;;;6.43;1.33;;;18.30;56.40;;;;;;4882313;29;20171;-83
2022/12/21 10:51:44;;;;;;;9.75;1.10;;;18.30;56.40;;;;;;4882384;29;20606;-83
2022/12/21 10:54:10;;;;;;;5.05;1.02;;;18.30;56.30;;;;;;4882470;29;20203;-83
2022/12/21 10:56:45;;;;;;;11.43;1.30;;;18.20;56.40;;;;;;4883937;29;20270;-83
2022/12/21 10:59:25;;;;;;;4.97;1.33;;;18.30;56.40;;;;;;4885142;29;20190;-83
2022/12/21 11:01:52;;;;;;;4.60;1.40;;;18.30;56.40;;;;;;4868384;29;20634;-83
2022/12/21 11:04:28;;;;;;;10.50;1.35;;;18.30;56.40;;;;;;4885446;29;20194;-82
2022/12/21 11:06:54;;;;;;;8.02;1.48;;;18.30;56.40;;;;;;4895548;29;20186;-82
2022/12/21 11:09:43;;;;;;;12.02;1.40;;;18.30;56.30;;;;;;4907955;29;20182;-83
2022/12/21 11:12:17;;;;;;;8.10;1.50;;;18.30;56.20;;;;;;4892665;29;20193;-83
2022/12/21 11:14:43;;;;;;;6.13;1.17;;;18.30;56.40;;;;;;4906283;29;20225;-82
2022/12/21 11:17:17;;;;;;;2.78;1.00;;;18.30;56.40;;;;;;4889438;29;20633;-82
2022/12/21 11:19:43;;;;;;;3.08;0.98;;;18.30;56.10;;;;;;4916584;28;20323;-82
2022/12/21 11:22:08;;;;;;;6.82;0.93;;;18.30;56.10;;;;;;4946276;28;20208;-82
2022/12/21 11:24:37;;;;;;;3.10;0.98;;;18.30;56.40;;;;;;4945744;28;20216;-82
2022/12/21 11:27:19;;;;;;;11.48;1.10;;;18.40;56.30;;;;;;4946217;28;20180;-81
2022/12/21 11:29:48;;;;;;;3.83;1.15;;;18.30;56.30;;;;;;4930148;28;20211;-81
2022/12/21 11:32:14;;;;;;;3.22;0.85;;;18.30;56.30;;;;;;4960851;28;20164;-81
2022/12/21 11:34:43;;;;;;;1.83;0.77;;;18.30;56.30;;;;;;4944227;28;20161;-82
2022/12/21 11:37:31;;;;;;;3.33;0.95;;;18.30;56.20;;;;;;4959441;28;20185;-81
2022/12/21 11:39:58;;;;;;;2.50;0.98;;;18.30;56.20;;;;;;4943220;28;20200;-81
2022/12/21 11:42:26;;;;;;;2.67;0.98;;;18.30;56.20;;;;;;4930680;28;20259;-81
2022/12/21 11:45:04;;;;;;;3.53;0.77;;;18.30;56.20;;;;;;4947607;28;20164;-83
2022/12/21 11:47:48;;;;;;;4.55;0.98;;;18.30;56.00;;;;;;4965784;28;20580;-83
2022/12/21 11:50:24;;;;;;;2.13;0.65;;;18.30;56.00;;;;;;4936524;28;20534;-82
2022/12/21 11:53:15;;;;;;;1.92;0.80;;;18.30;56.00;;;;;;4932947;28;20204;-82
2022/12/21 11:56:00;;;;;;;1.63;0.80;;;18.30;56.00;;;;;;4966011;28;20168;-82
2022/12/21 11:58:39;;;;;;;1.60;0.82;;;18.30;56.00;;;;;;4934406;28;20165;-82
2022/12/21 12:01:35;;;;;;;1.55;0.80;;;18.30;55.90;;;;;;4931883;28;20247;-82
2022/12/21 12:04:11;;;;;;;2.42;0.82;;;18.40;55.90;;;;;;4935776;28;20172;-82
2022/12/21 12:07:00;;;;;;;3.05;0.77;;;18.40;55.70;;;;;;4948362;28;20168;-83
2022/12/21 12:09:44;;;;;;;1.20;0.70;;;18.40;55.70;;;;;;4949732;28;20175;-82
2022/12/21 12:12:24;;;;;;;0.98;0.70;;;18.40;55.40;;;;;;4936395;28;20208;-82
2022/12/21 12:15:12;;;;;;;3.65;0.88;;;18.40;55.40;;;;;;4934500;28;20168;-82
2022/12/21 12:17:38;;;;;;;2.30;0.82;;;18.40;55.20;;;;;;4927297;28;20325;-82
2022/12/21 12:20:35;;;;;;;2.50;0.70;;;18.40;55.20;;;;;;4968430;28;20173;-83
2022/12/21 12:23:22;;;;;;;2.03;0.77;;;18.50;55.20;;;;;;4969854;28;20251;-83
2022/12/21 12:26:08;;;;;;;1.08;0.70;;;18.50;55.60;;;;;;4907951;29;20599;-82
2022/12/21 12:28:50;;;;;;;1.35;0.65;;;18.50;55.60;;;;;;4918312;29;20681;-82
2022/12/21 12:31:19;;;;;;;1.13;0.70;;;18.40;55.40;;;;;;4909182;29;20777;-85
2022/12/21 12:34:20;;;;;;;1.15;0.65;;;18.40;55.60;;;;;;4909078;29;20685;-85
2022/12/21 12:37:05;;;;;;;3.13;0.63;;;18.50;55.60;;;;;;4911081;29;20733;-86
2022/12/21 12:40:10;;;;;;;2.45;0.80;;;18.40;55.60;;;;;;4918960;29;20259;-85
2022/12/21 12:42:42;;;;;;;1.85;0.52;;;18.40;55.40;;;;;;4917878;29;20191;-85
2022/12/21 12:45:38;;;;;;;3.00;0.60;;;18.40;55.50;;;;;;4893896;29;20171;-86
2022/12/21 12:48:29;;;;;;;1.05;0.70;;;18.40;55.40;;;;;;4895333;29;20170;-84
2022/12/21 12:51:10;;;;;;;2.20;0.63;;;18.40;55.40;;;;;;4896917;29;20189;-84
2022/12/21 12:56:54;;;;;;;4.18;0.80;;;18.40;55.30;;;;;;4855630;29;20199;-84
2022/12/21 12:59:41;;;;;;;1.92;0.68;;;18.40;55.30;;;;;;4867685;29;20181;-84
2022/12/21 13:02:34;;;;;;;2.65;0.60;;;18.40;55.20;;;;;;4868863;29;20192;-84
2022/12/21 13:05:40;;;;;;;;;;;;;;;;;;;;;
2022/12/21 13:08:24;;;;;;;1.85;0.75;;;18.50;55.20;;;;;;4865160;29;20256;-84
2022/12/21 13:11:51;;;;;;;1.30;0.60;;;18.40;55.20;;;;;;4868208;29;20169;-83
2022/12/21 13:14:34;;;;;;;0.65;0.60;;;18.50;55.10;;;;;;4850337;29;20224;-83
2022/12/21 13:17:10;;;;;;;1.80;0.73;;;18.40;55.30;;;;;;4832951;29;20173;-85
2022/12/21 13:19:42;;;;;;;1.20;0.65;;;18.40;55.20;;;;;;4815538;29;20190;-84
2022/12/21 13:22:10;;;;;;;2.35;0.80;;;18.40;55.10;;;;;;4844890;29;20188;-84
2022/12/21 13:24:41;;;;;;;1.35;0.60;;;18.40;55.00;;;;;;4866748;29;20283;-85
2022/12/21 13:27:17;;;;;;;1.65;0.60;;;18.40;55.00;;;;;;4856612;29;20189;-85
2022/12/21 13:30:00;;;;;;;1.92;1.08;;;18.50;55.10;;;;;;4859992;29;20271;-84
2022/12/21 13:32:35;;;;;;;3.05;0.60;;;18.40;54.90;;;;;;4863432;29;20257;-84
2022/12/21 13:35:26;;;;;;;1.70;0.70;;;18.40;54.90;;;;;;4914132;29;20194;-84
2022/12/21 13:38:18;;;;;;;2.30;0.80;;;18.40;55.00;;;;;;4917542;29;20189;-85
2022/12/21 13:41:24;;;;;;;3.13;0.85;;;18.40;54.80;;;;;;4920933;29;20209;-85
2022/12/21 13:44:35;;;;;;;0.75;0.52;;;18.40;54.80;;;;;;4917755;29;20258;-84
2022/12/21 13:47:14;;;;;;;0.95;0.63;;;18.50;54.60;;;;;;4902396;29;20175;-84
2022/12/21 13:50:08;;;;;;;1.50;0.60;;;18.50;54.50;;;;;;4915963;29;20216;-85
2022/12/21 13:52:59;;;;;;;0.75;0.60;;;18.50;55.20;;;;;;4911365;29;20207;-83
2022/12/21 13:56:12;;;;;;;3.58;0.95;;;18.50;54.60;;;;;;4877600;29;20184;-83
2022/12/21 13:58:58;;;;;;;1.77;0.65;;;18.50;54.50;;;;;;4807370;29;20210;-82
2022/12/21 14:01:54;;;;;;;0.95;0.50;;;18.40;54.80;;;;;;4826533;29;20273;-82
2022/12/21 14:04:41;;;;;;;0.98;0.57;;;18.60;54.70;;;;;;4871519;29;20257;-83
2022/12/21 14:07:24;;;;;;;2.70;1.00;;;18.50;54.60;;;;;;4856635;29;20237;-83
2022/12/21 14:10:13;;;;;;;2.25;0.57;;;18.50;54.40;;;;;;4851277;29;20164;-82
2022/12/21 14:12:56;;;;;;;1.00;0.70;;;18.50;54.30;;;;;;4854344;29;20216;-82
2022/12/21 14:15:52;;;;;;;2.38;0.60;;;18.60;54.40;;;;;;4850388;29;20747;-82
2022/12/21 14:18:22;;;;;;;1.13;0.70;;;18.50;54.60;;;;;;4887938;29;20683;-83
2022/12/21 14:20:50;;;;;;;2.20;0.82;;;18.50;54.50;;;;;;4900308;29;20190;-83